Impacts TAF Board
For situational awareness. Not to be used for flight planning purposes.
IDs:

KMEI - Meridian/Key Fld, MS, US

Issued at 1744 UTC 23 Jan 2019
Updated at 1814 UTC 23 Jan 2019
Potential Impact None Slight Moderate High
Time<<24/07Z 24/08Z 24/09Z 24/10Z 24/11Z 24/12Z 24/13Z 24/14Z 24/15Z 24/16Z 24/17Z 24/18Z 24/19Z>>
Type PRVL PRVL PRVL PRVL PRVL PRVL PRVL PRVL PRVL PRVL PRVL
VIS >6 >6 >6 >6 >6 >6 >6 >6 >6 >6 >6
CIG 25 25 25 25 25 25 -- -- -- -- --
Cover BKN BKN BKN BKN BKN BKN SCT SCT SCT SCT SCT
FltCat MVFR MVFR MVFR MVFR MVFR MVFR VFR VFR VFR VFR VFR
WX -- -- -- -- -- -- -- -- -- -- --
WDir 320 320 320 320 320 320 330 330 330 330 330
WSpd 10 10 10 10 10 10 5 5 5 5 5
WGst -- -- -- -- -- -- -- -- -- -- --
Raw TAF
KMEI 231744Z 2318/2418 31014G22KT 2SM RA BR BKN012 OVC025
  FM231830 31012G20KT 6SM SHRA BR FEW008 BKN015 OVC050
  FM240200 32010KT P6SM BKN025
  FM241300 33005KT P6SM SCT025


METAR Board
Radar Display
Forecast Discussion
For situational awareness. Not to be used for flight planning purposes.